world map with IXI marked

IXI - Airport

This information may not be accurate or current and is not valid for navigation or flight planning. No warranty of fitness for any purpose is made or implied.

flag of India

Donate via PayPal

Additional information is available on the NEW Great Circle Mapper

Location
City:  Lilabari, Assam, India
Name:North Lakhimpur
ICAO / IATA:VELR / IXI

Details
Type:Airport (Aerodrome, Airfield)
Latitude:27°17'44"N (27.295494)
Longitude:94°05'52"E (94.097650)
Datum:WGS 1984
Elevation:330 ft (101 m)
Runways:1
Longest:7500 × 150 ft (2286 × 45.5 m)

Time
Timezone:UTC+5:30 (DST+7:30)
Local Time:

Weather
METAR:VELR  121200Z 14003KT 4000 HZ SCT018 BKN100 25/19 Q1012
TAF:VELR  (expired)

Related Locations
Nearby:
Farthest:SCFX: 12081 mi / 19442 km
Isla San Félix, Desventuradas Islands, VS, CL

Find:

   beyond  
but within

Other Information
Maps:
Sources:

  


 


Great Circle Mapper   Great Circle Mapper
Great Circle Mapper FAQ   Great Circle Mapper FAQ
  Karl's Home Page
KLS²   KLS² Home
   GC on Facebook
Airlines of the World   Airlines of the World
Donate via PayPal


Copyright © 2004-2017, Karl L. Swartz. All rights reserved.
All trademarks mentioned herein belong to their respective owners.

Please see credits for attribution and copyright information.

Karl Swartz <karl@kls2.com>
  Powered by FreeBSD
Valid HTML 4.01!
Labeled with ICRA
hCard Microformat
Geo Microformat